createdAt,value
2023-01-30T00:03:23.000Z,16.20
2023-01-30T00:08:24.793Z,16.20
2023-01-30T00:13:27.702Z,16.20
2023-01-30T00:18:29.651Z,16.20
2023-01-30T00:23:32.140Z,16.20
2023-01-30T00:28:34.085Z,16.20
2023-01-30T00:33:36.560Z,16.10
2023-01-30T00:38:38.408Z,16.10
2023-01-30T00:43:59.011Z,16.10
2023-01-30T00:49:00.632Z,16.10
2023-01-30T00:54:02.359Z,16.10
2023-01-30T00:59:04.111Z,16.10
2023-01-30T01:04:06.780Z,16.00
2023-01-30T01:09:08.512Z,16.00
2023-01-30T01:14:10.196Z,16.00
2023-01-30T01:19:12.033Z,16.00
2023-01-30T01:24:14.615Z,16.00
2023-01-30T01:29:17.287Z,16.00
2023-01-30T01:34:18.998Z,16.00
2023-01-30T01:39:21.231Z,16.00
2023-01-30T01:44:24.806Z,15.90
2023-01-30T01:49:29.007Z,15.90
2023-01-30T01:54:42.662Z,15.90
2023-01-30T01:59:46.588Z,15.90
2023-01-30T02:05:02.252Z,15.90
2023-01-30T02:10:04.467Z,15.90
2023-01-30T02:15:06.388Z,15.90
2023-01-30T02:20:20.141Z,15.90
2023-01-30T02:25:48.004Z,15.80
2023-01-30T02:31:14.405Z,15.80
2023-01-30T02:36:16.092Z,15.80
2023-01-30T02:41:27.089Z,15.80
2023-01-30T02:46:46.698Z,15.80
2023-01-30T02:51:49.980Z,15.80
2023-01-30T02:56:53.005Z,15.80
2023-01-30T03:01:57.737Z,15.80
2023-01-30T03:07:18.091Z,15.80
2023-01-30T03:12:32.239Z,15.70
2023-01-30T03:17:35.038Z,15.70
2023-01-30T03:22:36.582Z,15.70
2023-01-30T03:27:38.360Z,15.70
2023-01-30T03:32:40.056Z,15.70
2023-01-30T03:37:41.818Z,15.70
2023-01-30T03:42:43.582Z,15.70
2023-01-30T03:47:45.158Z,15.70
2023-01-30T03:52:46.820Z,15.70
2023-01-30T03:57:48.492Z,15.70
2023-01-30T04:02:50.671Z,15.60
2023-01-30T04:07:55.998Z,15.60
2023-01-30T04:12:57.706Z,15.60
2023-01-30T04:17:59.488Z,15.60
2023-01-30T04:23:01.195Z,15.60
2023-01-30T04:28:02.864Z,15.60
2023-01-30T04:33:04.705Z,15.60
2023-01-30T04:38:06.456Z,15.60
2023-01-30T04:43:08.063Z,15.60
2023-01-30T06:05:38.988Z,16.20
2023-01-30T06:10:40.588Z,16.40
2023-01-30T06:15:42.218Z,16.50
2023-01-30T06:20:48.223Z,16.50
2023-01-30T06:25:50.585Z,16.50
2023-01-30T06:30:52.853Z,16.40
2023-01-30T06:35:54.528Z,16.40
2023-01-30T06:40:56.236Z,16.30
2023-01-30T06:46:01.185Z,16.30
2023-01-30T06:51:03.003Z,16.20
2023-01-30T06:56:04.848Z,16.20
2023-01-30T07:01:06.576Z,16.20
2023-01-30T07:06:08.264Z,16.30
2023-01-30T07:11:10.249Z,16.40
2023-01-30T07:16:11.920Z,16.50
2023-01-30T07:21:13.486Z,16.50
2023-01-30T07:26:15.177Z,16.50
2023-01-30T07:31:16.904Z,16.50
2023-01-30T07:36:18.495Z,16.40
2023-01-30T07:41:20.312Z,16.40
2023-01-30T07:46:22.004Z,16.30
2023-01-30T07:51:23.807Z,16.30
2023-01-30T07:56:25.575Z,16.20
2023-01-30T08:01:27.177Z,16.10
2023-01-30T08:06:28.992Z,16.10
2023-01-30T08:11:30.669Z,16.10
2023-01-30T08:16:34.093Z,16.00
2023-01-30T08:21:35.983Z,16.00
2023-01-30T08:26:37.673Z,16.00
2023-01-30T08:31:39.289Z,15.90
2023-01-30T08:36:40.956Z,15.90
2023-01-30T08:41:43.225Z,15.80
2023-01-30T08:46:44.966Z,15.80
2023-01-30T08:51:46.722Z,15.80
2023-01-30T08:56:48.372Z,15.70
2023-01-30T09:01:50.051Z,15.70
2023-01-30T09:06:51.928Z,15.60
2023-01-30T09:11:53.652Z,15.60
2023-01-30T09:16:58.519Z,15.60
2023-01-30T09:22:00.275Z,15.60
2023-01-30T09:27:01.898Z,15.60
2023-01-30T09:32:03.509Z,15.60
2023-01-30T09:37:05.417Z,15.60
2023-01-30T09:42:22.331Z,15.50
2023-01-30T09:47:32.225Z,15.50
2023-01-30T09:52:44.778Z,15.50
2023-01-30T09:57:50.777Z,15.50
2023-01-30T10:03:02.047Z,15.50
2023-01-30T10:08:17.928Z,15.50
2023-01-30T10:13:35.766Z,15.50
2023-01-30T10:18:37.320Z,15.50
2023-01-30T10:24:00.671Z,15.50
2023-01-30T10:29:07.782Z,15.50
2023-01-30T10:34:11.963Z,15.40
2023-01-30T10:39:36.899Z,15.50
2023-01-30T10:44:42.626Z,15.50
2023-01-30T10:49:45.426Z,15.50
2023-01-30T10:54:50.144Z,15.50
2023-01-30T10:59:51.948Z,15.50
2023-01-30T11:05:00.954Z,15.40
2023-01-30T11:10:15.519Z,15.40
2023-01-30T11:15:17.429Z,15.40
2023-01-30T11:20:24.142Z,15.40
2023-01-30T11:25:25.838Z,15.40
2023-01-30T11:30:28.721Z,15.40
2023-01-30T11:35:30.971Z,15.40
2023-01-30T11:40:37.522Z,15.40
2023-01-30T11:45:44.224Z,15.40
2023-01-30T11:50:49.599Z,15.40
2023-01-30T11:56:02.859Z,15.40
2023-01-30T12:01:09.192Z,15.40
2023-01-30T12:06:10.829Z,15.40
2023-01-30T12:11:32.667Z,15.30
2023-01-30T12:16:44.148Z,15.30
2023-01-30T12:21:52.564Z,15.30
2023-01-30T12:26:59.992Z,15.30
2023-01-30T12:32:15.142Z,15.30
2023-01-30T12:37:25.716Z,15.30
2023-01-30T12:42:43.054Z,15.30
2023-01-30T12:48:02.731Z,15.30
2023-01-30T12:53:19.635Z,15.30
2023-01-30T12:58:30.590Z,15.30
2023-01-30T13:03:43.659Z,15.30
2023-01-30T13:09:11.282Z,15.30
2023-01-30T13:14:13.111Z,15.30
2023-01-30T13:19:40.801Z,15.30
2023-01-30T13:24:48.341Z,15.30
2023-01-30T13:29:51.673Z,15.30
2023-01-30T13:34:53.676Z,15.30
2023-01-30T13:40:27.638Z,15.30
2023-01-30T13:45:31.814Z,15.30
2023-01-30T13:50:51.725Z,15.30
2023-01-30T13:55:57.967Z,15.30
2023-01-30T14:00:59.749Z,15.30
2023-01-30T14:06:03.643Z,15.30
2023-01-30T14:11:05.665Z,15.30
2023-01-30T14:16:07.350Z,15.30
2023-01-30T14:21:13.447Z,15.30
2023-01-30T14:26:15.123Z,15.30
2023-01-30T14:31:36.811Z,15.30
2023-01-30T14:36:46.863Z,15.20
2023-01-30T14:42:08.445Z,15.30
2023-01-30T14:47:34.322Z,15.30
2023-01-30T14:52:40.415Z,15.30
2023-01-30T14:57:48.641Z,15.30
2023-01-30T15:02:56.225Z,15.30
2023-01-30T15:08:06.359Z,15.30
2023-01-30T15:13:26.635Z,15.20
2023-01-30T15:18:31.189Z,15.20
2023-01-30T15:23:48.736Z,15.20
2023-01-30T15:29:09.229Z,15.20
2023-01-30T15:34:19.645Z,15.20
2023-01-30T15:39:22.364Z,15.20
2023-01-30T15:44:32.997Z,15.20
2023-01-30T15:49:43.512Z,15.20
2023-01-30T15:54:49.854Z,15.10
2023-01-30T15:59:53.165Z,15.10
2023-01-30T16:05:27.084Z,15.10
2023-01-30T16:10:30.112Z,15.10
2023-01-30T16:15:38.923Z,15.10
2023-01-30T16:20:55.240Z,15.10
2023-01-30T16:26:03.757Z,15.10
2023-01-30T16:31:07.049Z,15.10
2023-01-30T16:36:20.790Z,15.00
2023-01-30T16:41:30.778Z,15.00
2023-01-30T16:46:41.396Z,15.00
2023-01-30T16:51:43.298Z,15.10
2023-01-30T16:56:47.501Z,15.30
2023-01-30T17:01:49.385Z,15.50
2023-01-30T17:06:53.379Z,15.80
2023-01-30T17:11:54.994Z,16.10
2023-01-30T17:17:00.579Z,16.40
2023-01-30T17:22:06.472Z,16.60
2023-01-30T17:27:08.659Z,16.80
2023-01-30T17:32:11.429Z,17.00
2023-01-30T17:37:17.480Z,17.10
2023-01-30T17:42:21.111Z,17.10
2023-01-30T17:47:22.974Z,17.20
2023-01-30T17:52:24.700Z,17.20
2023-01-30T17:57:26.583Z,17.20
2023-01-30T18:02:29.057Z,17.30
2023-01-30T18:07:30.782Z,17.40
2023-01-30T18:12:32.427Z,17.50
2023-01-30T18:17:34.573Z,17.70
2023-01-30T18:22:36.377Z,17.80
2023-01-30T18:27:38.303Z,17.90
2023-01-30T18:32:51.566Z,18.00
2023-01-30T18:37:58.218Z,18.00
2023-01-30T18:43:02.450Z,17.80
2023-01-30T18:48:04.214Z,17.80
2023-01-30T18:53:07.389Z,17.80
2023-01-30T18:58:09.114Z,17.80
2023-01-30T19:03:10.645Z,18.00
2023-01-30T19:08:12.335Z,18.00
2023-01-30T19:13:32.485Z,18.20
2023-01-30T19:18:36.375Z,18.30
2023-01-30T19:23:38.018Z,18.30
2023-01-30T19:28:41.601Z,18.20
2023-01-30T19:33:44.001Z,18.10
2023-01-30T19:38:46.245Z,18.10
2023-01-30T19:43:48.188Z,18.10
2023-01-30T19:48:49.933Z,18.20
2023-01-30T19:53:53.037Z,18.30
2023-01-30T19:58:55.315Z,18.30
2023-01-30T20:03:57.335Z,18.20
2023-01-30T20:09:00.666Z,18.00
2023-01-30T20:14:04.789Z,17.90
2023-01-30T20:19:12.799Z,17.70
2023-01-30T20:24:15.122Z,17.60
2023-01-30T20:29:17.842Z,17.40
2023-01-30T20:34:19.801Z,17.30
2023-01-30T20:39:21.917Z,17.20
2023-01-30T20:44:24.418Z,17.10
2023-01-30T20:49:26.578Z,17.00
2023-01-30T20:54:28.220Z,16.80
2023-01-30T20:59:30.132Z,16.80
2023-01-30T21:04:31.841Z,16.70
2023-01-30T21:09:33.593Z,16.60
2023-01-30T21:14:35.725Z,16.60
2023-01-30T21:19:38.054Z,16.50
2023-01-30T21:24:43.365Z,16.50
2023-01-30T21:29:44.992Z,16.40
2023-01-30T21:34:46.668Z,16.30
2023-01-30T21:40:06.655Z,16.30
2023-01-30T21:45:08.425Z,16.20
2023-01-30T21:50:10.360Z,16.20
2023-01-30T21:55:12.017Z,16.10
2023-01-30T22:00:13.871Z,16.10
2023-01-30T22:05:15.500Z,16.10
2023-01-30T22:10:17.181Z,16.00
2023-01-30T22:15:22.175Z,16.00
2023-01-30T22:20:23.870Z,15.90
2023-01-30T22:25:25.770Z,15.90
2023-01-30T22:30:27.494Z,15.90
2023-01-30T22:35:29.132Z,15.80
2023-01-30T22:40:31.029Z,15.80
2023-01-30T22:45:34.861Z,15.80
2023-01-30T22:50:37.035Z,15.80
2023-01-30T22:55:39.326Z,15.80
2023-01-30T23:00:41.168Z,15.70
2023-01-30T23:05:42.895Z,15.70
2023-01-30T23:10:44.549Z,15.70
2023-01-30T23:15:46.911Z,15.70
2023-01-30T23:20:48.644Z,15.70
2023-01-30T23:25:50.598Z,15.60
2023-01-30T23:30:52.470Z,15.60
2023-01-30T23:35:54.243Z,15.60
2023-01-30T23:41:03.926Z,15.60
2023-01-30T23:46:12.542Z,15.50
2023-01-30T23:51:15.180Z,15.50
2023-01-30T23:56:17.424Z,15.50
